Glykofilousa — SVA4543 — position and weather

sailwx.info

Track history (hours):
 
Tides and Currents Weather Stations Pressure Air Temp Water Temp Dewpoint Dewpoint Depression Visibility Wind Speed Wind Dir Waves Ship Positions

Glykofilousa

Last reported at 2017-Oct-16 02:37 UTC. Time now 2017-Oct-19 23:48 UTC.
Position N 37°47' E 023°36'.

Length 27 m; draft 2.5 m.

Type: Fishing. MMSI: 241063000.

Date/timePositionNaut miles runAvg speedWind from/ knotsBaromVisibWave heightAir tempDewpointWater temp
2017-Oct-16 02:37N 37°47' E 023°36'1 8.9
2017-Oct-16 02:30N 37°48' E 023°36'4 8.8
2017-Oct-16 02:00N 37°52' E 023°36'4 8.7
2017-Oct-16 01:30N 37°57' E 023°36'1 1.8
2017-Oct-16 00:58N 37°57' E 023°37'0 0.0
2017-Oct-16 00:29N 37°57' E 023°37'0 0.0
2017-Oct-15 23:59N 37°57' E 023°37'0 0.0
2017-Oct-15 23:24N 37°57' E 023°37'0 0.0
2017-Oct-15 22:59N 37°57' E 023°37'0 0.0
2017-Oct-15 22:29N 37°57' E 023°37'0 0.0
2017-Oct-15 21:54N 37°57' E 023°37'0 0.0
2017-Oct-15 21:30N 37°57' E 023°37'0 0.0
2017-Oct-15 20:59N 37°57' E 023°37'0 0.0
2017-Oct-15 20:25N 37°57' E 023°37'0 0.0
2017-Oct-15 20:00N 37°57' E 023°37'0 0.0
2017-Oct-15 19:30N 37°57' E 023°37'0 0.0
2017-Oct-15 19:00N 37°57' E 023°37'0 0.0
2017-Oct-15 18:30N 37°57' E 023°37'0 0.0
2017-Oct-15 18:00N 37°57' E 023°37'3 5.8
2017-Oct-15 17:30N 37°55' E 023°36'5 9.4
2017-Oct-15 17:00N 37°50' E 023°35'  
Track history (hours):
 
Tides and Currents Weather Stations Pressure Air Temp Water Temp Dewpoint Dewpoint Depression Visibility Wind Speed Wind Dir Waves Ship Positions

Glykofilousa

Last reported at 2017-Oct-16 02:37 UTC. Time now 2017-Oct-19 23:48 UTC.
Position N 37°47' E 023°36'.

Length 27 m; draft 2.5 m.

Type: Fishing. MMSI: 241063000.

Date/timePositionNaut miles runAvg speedWind from/ knotsBaromVisibWave heightAir tempDewpointWater temp
2017-Oct-16 02:37N 37°47' E 023°36'1 8.9
2017-Oct-16 02:30N 37°48' E 023°36'4 8.8
2017-Oct-16 02:00N 37°52' E 023°36'4 8.7
2017-Oct-16 01:30N 37°57' E 023°36'1 1.8
2017-Oct-16 00:58N 37°57' E 023°37'0 0.0
2017-Oct-16 00:29N 37°57' E 023°37'0 0.0
2017-Oct-15 23:59N 37°57' E 023°37'0 0.0
2017-Oct-15 23:24N 37°57' E 023°37'0 0.0
2017-Oct-15 22:59N 37°57' E 023°37'0 0.0
2017-Oct-15 22:29N 37°57' E 023°37'0 0.0
2017-Oct-15 21:54N 37°57' E 023°37'0 0.0
2017-Oct-15 21:30N 37°57' E 023°37'0 0.0
2017-Oct-15 20:59N 37°57' E 023°37'0 0.0
2017-Oct-15 20:25N 37°57' E 023°37'0 0.0
2017-Oct-15 20:00N 37°57' E 023°37'0 0.0
2017-Oct-15 19:30N 37°57' E 023°37'0 0.0
2017-Oct-15 19:00N 37°57' E 023°37'0 0.0
2017-Oct-15 18:30N 37°57' E 023°37'0 0.0
2017-Oct-15 18:00N 37°57' E 023°37'3 5.8
2017-Oct-15 17:30N 37°55' E 023°36'5 9.4
2017-Oct-15 17:00N 37°50' E 023°35'  

Dump ship's entire track history